createdAt,value
2023-03-02T00:02:50.821Z,16.23
2023-03-02T00:07:43.084Z,17.17
2023-03-02T00:12:35.455Z,16.30
2023-03-02T00:17:30.234Z,17.60
2023-03-02T00:22:22.200Z,18.83
2023-03-02T00:27:14.215Z,18.77
2023-03-02T00:32:06.941Z,18.63
2023-03-02T00:36:59.391Z,18.47
2023-03-02T00:41:51.506Z,17.93
2023-03-02T00:46:45.806Z,18.47
2023-03-02T00:51:37.864Z,17.40
2023-03-02T00:56:30.758Z,17.20
2023-03-02T01:01:22.902Z,18.37
2023-03-02T01:06:20.193Z,17.17
2023-03-02T01:11:20.523Z,17.20
2023-03-02T01:16:13.319Z,17.20
2023-03-02T01:21:08.529Z,16.40
2023-03-02T01:26:00.642Z,16.43
2023-03-02T01:30:52.692Z,16.00
2023-03-02T01:35:46.469Z,17.53
2023-03-02T01:40:38.605Z,17.03
2023-03-02T01:45:53.759Z,17.40
2023-03-02T01:50:59.057Z,16.53
2023-03-02T01:55:52.616Z,17.50
2023-03-02T02:00:45.690Z,17.07
2023-03-02T02:12:18.223Z,17.13
2023-03-02T02:17:11.215Z,16.87
2023-03-02T02:22:03.574Z,18.50
2023-03-02T02:26:58.656Z,16.77
2023-03-02T02:32:02.235Z,16.23
2023-03-02T02:36:58.589Z,17.37
2023-03-02T02:41:55.465Z,18.23
2023-03-02T02:46:48.407Z,17.17
2023-03-02T02:51:40.438Z,18.77
2023-03-02T02:56:36.128Z,17.63
2023-03-02T03:01:29.374Z,16.93
2023-03-02T03:06:38.198Z,16.20
2023-03-02T03:11:41.539Z,17.53
2023-03-02T03:16:35.302Z,17.60
2023-03-02T03:21:27.663Z,17.30
2023-03-02T03:26:20.613Z,16.77
2023-03-02T03:31:13.348Z,18.47
2023-03-02T03:36:05.951Z,17.43
2023-03-02T03:40:58.123Z,17.30
2023-03-02T03:45:52.039Z,17.53
2023-03-02T03:50:45.216Z,18.10
2023-03-02T03:55:37.321Z,16.97
2023-03-02T04:00:29.491Z,18.73
2023-03-02T04:05:29.650Z,18.37
2023-03-02T04:10:22.755Z,19.37
2023-03-02T04:15:17.598Z,17.87
2023-03-02T04:20:16.952Z,18.10
2023-03-02T04:25:13.710Z,17.90
2023-03-02T04:30:07.496Z,17.37
2023-03-02T04:35:00.768Z,20.40
2023-03-02T04:39:54.074Z,17.97
2023-03-02T04:44:46.305Z,18.87
2023-03-02T04:49:38.609Z,21.20
2023-03-02T04:54:30.746Z,21.43
2023-03-02T04:59:26.174Z,21.07
2023-03-02T05:04:18.750Z,19.53
2023-03-02T05:09:11.439Z,19.17
2023-03-02T05:14:06.460Z,20.43
2023-03-02T05:18:59.179Z,19.93
2023-03-02T05:23:51.588Z,20.50
2023-03-02T05:28:44.120Z,20.47
2023-03-02T05:33:36.269Z,19.73
2023-03-02T05:38:30.267Z,20.63
2023-03-02T05:43:23.844Z,20.27
2023-03-02T05:48:16.241Z,20.83
2023-03-02T05:53:08.521Z,20.23
2023-03-02T05:58:00.551Z,21.67
2023-03-02T06:02:52.626Z,19.90
2023-03-02T06:07:45.519Z,21.77
2023-03-02T06:12:37.974Z,22.07
2023-03-02T06:17:30.000Z,22.43
2023-03-02T06:22:22.013Z,21.07
2023-03-02T06:27:14.835Z,23.33
2023-03-02T06:32:07.434Z,25.73
2023-03-02T06:36:59.823Z,21.10
2023-03-02T06:41:51.996Z,23.00
2023-03-02T06:46:44.593Z,19.80
2023-03-02T06:51:37.367Z,21.90
2023-03-02T06:56:29.404Z,20.10
2023-03-02T07:01:21.562Z,21.17
2023-03-02T07:06:14.004Z,20.30
2023-03-02T07:11:10.979Z,20.60
2023-03-02T07:16:13.178Z,20.17
2023-03-02T07:21:05.862Z,19.67
2023-03-02T07:25:57.999Z,19.63
2023-03-02T07:30:53.648Z,18.60
2023-03-02T07:35:45.707Z,19.90
2023-03-02T07:40:44.133Z,18.97
2023-03-02T07:45:36.910Z,20.83
2023-03-02T07:50:28.934Z,18.97
2023-03-02T07:55:20.927Z,18.40
2023-03-02T08:00:13.517Z,19.53
2023-03-02T08:05:06.063Z,18.70
2023-03-02T08:09:58.922Z,19.50
2023-03-02T08:14:50.925Z,20.80
2023-03-02T08:19:43.059Z,20.20
2023-03-02T08:24:35.050Z,20.67
2023-03-02T08:29:27.318Z,22.40
2023-03-02T08:34:19.474Z,23.57
2023-03-02T08:39:12.052Z,22.53
2023-03-02T08:44:04.115Z,23.60
2023-03-02T08:48:56.387Z,26.70
2023-03-02T08:53:55.162Z,26.13
2023-03-02T08:58:48.760Z,24.40
2023-03-02T09:03:40.820Z,23.73
2023-03-02T09:08:32.854Z,23.30
2023-03-02T09:13:24.811Z,24.57
2023-03-02T09:18:16.831Z,25.77
2023-03-02T09:23:11.179Z,24.73
2023-03-02T09:28:03.225Z,23.30
2023-03-02T09:32:55.390Z,26.00
2023-03-02T09:37:47.549Z,23.93
2023-03-02T09:43:00.529Z,24.90
2023-03-02T09:48:01.849Z,25.77
2023-03-02T09:53:22.602Z,24.37
2023-03-02T09:58:19.480Z,23.23
2023-03-02T10:03:32.492Z,24.53
2023-03-02T10:08:31.324Z,23.60
2023-03-02T10:13:26.503Z,22.97
2023-03-02T10:18:29.068Z,24.40
2023-03-02T10:23:40.602Z,22.43
2023-03-02T10:28:53.946Z,23.97
2023-03-02T10:33:46.062Z,24.03
2023-03-02T10:38:38.190Z,23.77
2023-03-02T10:43:59.896Z,23.80
2023-03-02T10:48:59.676Z,21.40
2023-03-02T10:54:13.080Z,18.03
2023-03-02T10:59:30.003Z,18.23
2023-03-02T11:04:22.215Z,16.53
2023-03-02T11:09:15.064Z,15.20
2023-03-02T11:14:25.548Z,13.43
2023-03-02T11:19:40.164Z,13.50
2023-03-02T11:24:39.143Z,19.13
2023-03-02T11:29:59.644Z,16.30
2023-03-02T11:35:00.612Z,6.63
2023-03-02T11:40:05.415Z,6.87
2023-03-02T11:45:01.992Z,6.83
2023-03-02T11:49:56.583Z,6.83
2023-03-02T11:54:57.873Z,8.00
2023-03-02T11:59:52.525Z,8.23
2023-03-02T12:04:44.638Z,8.90
2023-03-02T12:09:38.123Z,9.13
2023-03-02T12:14:40.553Z,9.70
2023-03-02T12:19:45.161Z,10.50
2023-03-02T12:24:39.876Z,13.07
2023-03-02T12:29:52.192Z,10.83
2023-03-02T12:34:52.623Z,14.70
2023-03-02T12:40:10.400Z,12.60
2023-03-02T12:45:27.903Z,12.60
2023-03-02T12:50:27.397Z,14.00
2023-03-02T12:55:20.549Z,13.50
2023-03-02T13:00:17.831Z,12.97
2023-03-02T13:05:17.006Z,12.47
2023-03-02T13:10:38.257Z,14.17
2023-03-02T13:15:30.493Z,14.33
2023-03-02T13:20:26.402Z,15.07
2023-03-02T13:25:33.135Z,15.53
2023-03-02T13:30:29.031Z,14.40
2023-03-02T13:35:28.137Z,14.57
2023-03-02T13:40:22.988Z,13.80
2023-03-02T13:45:28.971Z,13.60
2023-03-02T13:50:31.964Z,14.20
2023-03-02T13:55:24.978Z,14.33
2023-03-02T14:00:21.373Z,16.33
2023-03-02T14:05:19.196Z,15.87
2023-03-02T14:10:12.276Z,14.80
2023-03-02T14:15:05.075Z,13.93
2023-03-02T14:19:57.200Z,15.23
2023-03-02T14:24:49.338Z,14.40
2023-03-02T14:29:42.274Z,14.33
2023-03-02T14:34:36.994Z,13.77
2023-03-02T14:39:32.231Z,13.33
2023-03-02T14:44:24.263Z,12.97
2023-03-02T14:49:16.534Z,12.90
2023-03-02T14:54:14.429Z,11.87
2023-03-02T14:59:06.699Z,12.80
2023-03-02T15:03:58.892Z,10.03
2023-03-02T15:08:50.908Z,10.33
2023-03-02T15:13:45.621Z,9.77
2023-03-02T15:18:38.020Z,11.80
2023-03-02T15:23:31.419Z,12.07
2023-03-02T15:28:23.452Z,11.53
2023-03-02T15:33:15.418Z,10.97
2023-03-02T15:38:07.974Z,13.10
2023-03-02T15:43:00.132Z,13.20
2023-03-02T15:47:52.149Z,11.90
2023-03-02T15:52:44.063Z,17.77
2023-03-02T15:57:39.600Z,16.27
2023-03-02T16:02:31.652Z,15.13
2023-03-02T16:07:26.612Z,13.97
2023-03-02T16:12:20.985Z,13.67
2023-03-02T16:17:12.938Z,13.03
2023-03-02T16:22:04.994Z,14.10
2023-03-02T16:26:57.040Z,14.93
2023-03-02T16:31:49.180Z,24.90
2023-03-02T16:36:42.233Z,14.93
2023-03-02T16:41:35.202Z,13.17
2023-03-02T16:46:30.980Z,15.10
2023-03-02T16:51:23.151Z,14.80
2023-03-02T16:56:15.589Z,14.80
2023-03-02T17:01:10.804Z,14.10
2023-03-02T17:06:06.100Z,26.20
2023-03-02T17:10:58.083Z,25.73
2023-03-02T17:15:50.205Z,23.30
2023-03-02T17:20:42.253Z,21.33
2023-03-02T17:25:34.284Z,18.47
2023-03-02T17:30:26.735Z,18.77
2023-03-02T17:35:18.857Z,16.13
2023-03-02T17:40:15.786Z,16.43
2023-03-02T17:45:10.004Z,18.03
2023-03-02T17:50:05.278Z,15.80
2023-03-02T17:54:58.533Z,16.23
2023-03-02T17:59:50.877Z,17.07
2023-03-02T18:04:43.220Z,14.20
2023-03-02T18:09:35.351Z,16.40
2023-03-02T18:14:28.548Z,16.37
2023-03-02T18:19:20.531Z,15.90
2023-03-02T18:24:12.599Z,14.57
2023-03-02T18:29:05.318Z,14.13
2023-03-02T18:33:58.931Z,15.33
2023-03-02T18:38:53.103Z,15.17
2023-03-02T18:43:45.722Z,15.93
2023-03-02T18:48:41.831Z,15.50
2023-03-02T18:53:34.052Z,16.07
2023-03-02T18:58:26.274Z,17.53
2023-03-02T19:03:20.814Z,18.87
2023-03-02T19:08:12.869Z,29.63
2023-03-02T19:13:05.754Z,24.70
2023-03-02T19:17:57.795Z,22.60
2023-03-02T19:22:50.064Z,25.17
2023-03-02T19:27:42.080Z,19.60
2023-03-02T19:32:34.351Z,28.03
2023-03-02T19:37:26.434Z,27.33
2023-03-02T19:42:18.514Z,21.20
2023-03-02T19:47:10.566Z,24.53
2023-03-02T19:52:03.046Z,23.67
2023-03-02T19:56:55.544Z,25.13
2023-03-02T20:01:49.309Z,30.77
2023-03-02T20:06:41.577Z,30.97
2023-03-02T20:11:34.781Z,29.07
2023-03-02T20:16:26.935Z,28.00
2023-03-02T20:21:19.707Z,24.07
2023-03-02T20:26:12.064Z,23.87
2023-03-02T20:31:09.375Z,24.27
2023-03-02T20:36:03.118Z,24.67
2023-03-02T20:40:55.380Z,24.83
2023-03-02T20:45:47.645Z,33.23
2023-03-02T20:50:40.004Z,33.83
2023-03-02T20:55:32.470Z,30.60
2023-03-02T21:00:27.691Z,27.10
2023-03-02T21:05:20.606Z,32.93
2023-03-02T21:10:17.202Z,41.30
2023-03-02T21:15:10.519Z,38.97
2023-03-02T21:20:04.752Z,35.30
2023-03-02T21:24:57.089Z,38.93
2023-03-02T21:29:49.772Z,35.20
2023-03-02T21:34:45.025Z,33.90
2023-03-02T21:39:37.492Z,33.77
2023-03-02T21:44:29.623Z,31.80
2023-03-02T21:49:22.921Z,30.80
2023-03-02T21:54:15.384Z,29.60
2023-03-02T21:59:07.388Z,31.80
2023-03-02T22:04:00.729Z,32.00
2023-03-02T22:08:53.466Z,31.73
2023-03-02T22:13:45.462Z,31.83
2023-03-02T22:18:37.506Z,32.20
2023-03-02T22:23:29.573Z,29.27
2023-03-02T22:28:24.229Z,27.77
2023-03-02T22:33:27.856Z,30.30
2023-03-02T22:38:25.085Z,28.33
2023-03-02T22:43:31.724Z,28.83
2023-03-02T22:48:25.707Z,26.93
2023-03-02T22:53:30.412Z,26.93
2023-03-02T22:58:31.465Z,28.57
2023-03-02T23:03:42.430Z,26.53
2023-03-02T23:08:34.548Z,29.20
2023-03-02T23:13:39.940Z,28.57
2023-03-02T23:18:33.066Z,33.47
2023-03-02T23:23:26.764Z,32.17
2023-03-02T23:28:18.774Z,36.20
2023-03-02T23:33:10.838Z,38.37
2023-03-02T23:38:02.931Z,37.57
2023-03-02T23:42:55.481Z,36.53
2023-03-02T23:47:47.956Z,35.47
2023-03-02T23:52:41.161Z,37.33
2023-03-02T23:57:33.207Z,33.97
